Time;durP1;ratioP1;P1;durP2;ratioP2;P2;SDS_P1;SDS_P2;PMS_P1;PMS_P2;Temp;Humidity;BMP_temperature;BMP_pressure;BME280_temperature;BME280_humidity;BME280_pressure;Samples;Min_cycle;Max_cycle;Signal;HPM_P1;HPM_P2
2023/12/14 00:02:19;;;;;;;;;;;;;;;21.94;27.30;96973.69;4999366;28;726;-73
2023/12/14 00:04:45;;;;;;;;;;;;;;;22.00;27.43;96971.78;5015758;28;791;-73
2023/12/14 00:07:14;;;;;;;;;;;;;;;21.88;27.65;96964.25;4999432;28;1060;-73
2023/12/14 00:09:40;;;;;;;;;;;;;;;21.94;27.55;96961.56;5015753;28;810;-73
2023/12/14 00:12:05;;;;;;;;;;;;;;;21.91;27.48;96962.50;5001485;28;1957;-74
2023/12/14 00:14:31;;;;;;;;;;;;;;;21.92;27.73;96958.44;5018718;28;1035;-73
2023/12/14 00:16:59;;;;;;;;;;;;;;;21.94;27.35;96950.25;5019939;28;1367;-73
2023/12/14 00:19:24;;;;;;;;;;;;;;;21.66;27.40;96964.41;5002689;28;1239;-73
2023/12/14 00:21:50;;;;;;;;;;;;;;;21.44;28.47;96963.72;5036144;28;1003;-73
2023/12/14 00:24:15;;;;;;;;;;;;;;;21.57;28.42;96950.25;5037200;28;1444;-73
2023/12/14 00:26:41;;;;;;;;;;;;;;;21.81;27.77;96962.53;5019918;28;1200;-74
2023/12/14 00:29:06;;;;;;;;;;;;;;;21.97;27.44;96949.31;5035990;28;818;-73
2023/12/14 00:31:32;;;;;;;;;;;;;;;21.95;27.32;96958.25;5037080;28;1972;-73
2023/12/14 00:33:57;;;;;;;;;;;;;;;21.85;27.87;96957.47;5019486;28;1037;-73
2023/12/14 00:36:23;;;;;;;;;;;;;;;21.79;27.75;96961.41;5036134;28;887;-73
2023/12/14 00:38:48;;;;;;;;;;;;;;;21.62;27.72;96963.78;5019613;28;1178;-73
2023/12/14 00:41:14;;;;;;;;;;;;;;;21.56;27.74;96963.59;5037270;28;731;-74
2023/12/14 00:43:39;;;;;;;;;;;;;;;21.87;27.56;96968.34;5019272;28;771;-73
2023/12/14 00:46:05;;;;;;;;;;;;;;;21.91;27.66;96973.84;5037195;28;746;-73
2023/12/14 00:48:30;;;;;;;;;;;;;;;22.16;27.08;96972.75;5037070;28;704;-73
2023/12/14 00:50:56;;;;;;;;;;;;;;;21.55;28.19;96975.38;5035720;28;860;-73
2023/12/14 00:53:21;;;;;;;;;;;;;;;21.69;27.57;96968.31;5019028;28;1981;-73
2023/12/14 00:55:47;;;;;;;;;;;;;;;21.52;27.74;96954.47;5036789;28;727;-73
2023/12/14 00:58:13;;;;;;;;;;;;;;;21.63;27.92;96951.19;5035644;28;704;-73
2023/12/14 01:00:38;;;;;;;;;;;;;;;21.80;27.75;96946.78;5014170;28;871;-73
2023/12/14 01:03:04;;;;;;;;;;;;;;;22.12;27.17;96944.59;5014589;28;1161;-73
2023/12/14 01:05:29;;;;;;;;;;;;;;;21.73;28.01;96957.63;5014483;28;948;-73
2023/12/14 01:07:55;;;;;;;;;;;;;;;21.91;27.60;96956.84;5014542;28;826;-72
2023/12/14 01:10:20;;;;;;;;;;;;;;;21.79;27.80;96958.59;5014757;28;1185;-73
2023/12/14 01:12:46;;;;;;;;;;;;;;;21.58;27.96;96952.59;5014557;28;1910;-74
2023/12/14 01:15:11;;;;;;;;;;;;;;;21.67;27.64;96943.31;5014463;28;1226;-73
2023/12/14 01:17:37;;;;;;;;;;;;;;;21.49;28.34;96944.09;5014678;28;1092;-73
2023/12/14 01:20:06;;;;;;;;;;;;;;;21.95;27.50;96941.28;5014109;28;954;-73
2023/12/14 01:22:32;;;;;;;;;;;;;;;21.85;27.94;96946.16;5030688;28;1134;-73
2023/12/14 01:24:58;;;;;;;;;;;;;;;21.76;27.78;96931.19;5030999;28;786;-73
2023/12/14 01:27:23;;;;;;;;;;;;;;;21.64;27.95;96938.59;5030646;28;1166;-73
2023/12/14 01:29:48;;;;;;;;;;;;;;;21.61;28.29;96933.91;5030559;28;802;-73
2023/12/14 01:32:14;;;;;;;;;;;;;;;21.72;27.72;96931.38;5045727;28;1981;-73
2023/12/14 01:34:39;;;;;;;;;;;;;;;21.54;28.03;96928.53;5033422;28;1192;-74
2023/12/14 01:37:05;;;;;;;;;;;;;;;21.35;28.42;96929.75;5033871;28;763;-73
2023/12/14 01:39:30;;;;;;;;;;;;;;;21.74;27.93;96917.53;5033954;28;1257;-74
2023/12/14 01:41:56;;;;;;;;;;;;;;;21.71;28.16;96924.16;5034260;28;727;-73
2023/12/14 01:44:21;;;;;;;;;;;;;;;22.00;27.64;96915.16;5014043;28;1318;-73
2023/12/14 01:46:47;;;;;;;;;;;;;;;22.04;27.30;96920.66;4997645;28;1001;-73
2023/12/14 01:49:12;;;;;;;;;;;;;;;21.82;27.84;96918.00;4997926;28;893;-73
2023/12/14 01:51:38;;;;;;;;;;;;;;;22.06;27.34;96918.13;4982917;28;1906;-73
2023/12/14 01:54:03;;;;;;;;;;;;;;;21.75;27.64;96919.09;4978185;28;787;-73
2023/12/14 01:56:29;;;;;;;;;;;;;;;21.61;27.86;96916.13;4994276;28;908;-73
2023/12/14 01:58:54;;;;;;;;;;;;;;;21.30;28.22;96917.81;4978541;28;732;-73
2023/12/14 02:01:40;;;;;;;;;;;;;;;21.87;27.88;96916.59;4978457;28;1129;-73
2023/12/14 02:04:09;;;;;;;;;;;;;;;21.99;27.55;96924.13;4898416;29;1024;-73
2023/12/14 02:06:35;;;;;;;;;;;;;;;21.85;27.67;96919.88;4883349;29;946;-73
2023/12/14 02:09:00;;;;;;;;;;;;;;;22.00;27.55;96914.34;4898710;29;846;-73
2023/12/14 02:11:26;;;;;;;;;;;;;;;22.06;27.74;96923.78;4898513;29;1954;-73
2023/12/14 02:13:51;;;;;;;;;;;;;;;21.82;27.52;96921.63;4898505;29;745;-73
2023/12/14 02:16:17;;;;;;;;;;;;;;;21.78;27.42;96923.81;4898351;29;887;-73
2023/12/14 02:18:43;;;;;;;;;;;;;;;21.72;28.03;96922.88;4898416;29;832;-73
2023/12/14 02:21:09;;;;;;;;;;;;;;;21.98;27.65;96929.00;4907498;29;1067;-73
2023/12/14 02:23:34;;;;;;;;;;;;;;;21.86;27.81;96921.44;4936192;29;788;-73
2023/12/14 02:26:00;;;;;;;;;;;;;;;22.05;27.67;96923.00;4936395;29;1271;-73
2023/12/14 02:28:25;;;;;;;;;;;;;;;21.62;28.11;96918.47;4920401;29;1041;-73
2023/12/14 02:30:51;;;;;;;;;;;;;;;21.68;28.10;96922.25;4936449;29;1139;-73
2023/12/14 02:33:16;;;;;;;;;;;;;;;21.27;28.26;96913.06;4935893;29;1991;-73
2023/12/14 02:35:42;;;;;;;;;;;;;;;21.53;28.22;96915.63;4936527;29;988;-73
2023/12/14 02:38:08;;;;;;;;;;;;;;;21.96;27.73;96913.72;4925347;29;796;-73
2023/12/14 02:40:33;;;;;;;;;;;;;;;21.93;27.71;96926.03;4960445;28;1052;-73
2023/12/14 02:42:59;;;;;;;;;;;;;;;22.08;27.38;96922.06;5035495;28;854;-73
2023/12/14 02:45:24;;;;;;;;;;;;;;;21.90;27.47;96922.06;5018008;28;1302;-73
2023/12/14 02:47:51;;;;;;;;;;;;;;;21.47;28.41;96917.53;5037427;28;803;-73
2023/12/14 02:50:17;;;;;;;;;;;;;;;21.57;27.88;96914.22;5039023;28;822;-73
2023/12/14 02:52:43;;;;;;;;;;;;;;;21.70;28.03;96916.09;5038108;28;1902;-73
2023/12/14 02:55:08;;;;;;;;;;;;;;;21.95;27.56;96912.16;5037996;28;775;-73
2023/12/14 02:57:34;;;;;;;;;;;;;;;21.98;27.73;96912.00;5021633;28;723;-73
2023/12/14 02:59:59;;;;;;;;;;;;;;;22.12;27.59;96915.47;5021418;28;1056;-73
2023/12/14 03:02:25;;;;;;;;;;;;;;;22.14;27.56;96913.75;5020860;28;1525;-73
2023/12/14 03:04:50;;;;;;;;;;;;;;;21.93;27.64;96926.81;5021299;28;1174;-73
2023/12/14 03:07:16;;;;;;;;;;;;;;;21.63;27.91;96931.38;5021500;28;799;-73
2023/12/14 03:09:44;;;;;;;;;;;;;;;21.58;27.76;96937.66;5021169;28;1214;-74
2023/12/14 03:12:09;;;;;;;;;;;;;;;21.61;28.12;96933.91;5037630;28;1898;-73
2023/12/14 03:14:35;;;;;;;;;;;;;;;21.75;27.77;96932.47;5016251;28;884;-73
2023/12/14 03:17:00;;;;;;;;;;;;;;;21.82;27.81;96932.16;4983908;28;989;-73
2023/12/14 03:19:26;;;;;;;;;;;;;;;21.92;27.67;96936.56;4961075;28;1160;-74
2023/12/14 03:21:52;;;;;;;;;;;;;;;22.03;27.37;96930.41;4977246;28;904;-73
2023/12/14 03:24:17;;;;;;;;;;;;;;;21.94;27.56;96922.72;4938911;29;1102;-73
2023/12/14 03:26:43;;;;;;;;;;;;;;;22.15;27.51;96926.66;4939128;29;842;-73
2023/12/14 03:29:08;;;;;;;;;;;;;;;21.69;27.86;96917.38;4922813;29;886;-73
2023/12/14 03:31:35;;;;;;;;;;;;;;;21.78;27.62;96904.00;4938572;29;1902;-73
2023/12/14 03:34:00;;;;;;;;;;;;;;;21.72;27.81;96903.06;4922571;29;1842;-73
2023/12/14 03:36:27;;;;;;;;;;;;;;;21.77;28.13;96910.94;4922891;29;1129;-73
2023/12/14 03:38:53;;;;;;;;;;;;;;;22.00;27.62;96898.16;4938357;29;799;-73
2023/12/14 03:41:18;;;;;;;;;;;;;;;22.00;27.73;96914.34;4938542;29;848;-73
2023/12/14 03:43:44;;;;;;;;;;;;;;;21.85;27.70;96917.81;4957257;29;1260;-73
2023/12/14 03:46:09;;;;;;;;;;;;;;;21.71;28.00;96926.97;4955707;28;953;-73
2023/12/14 03:48:35;;;;;;;;;;;;;;;21.71;27.78;96924.16;4960924;28;943;-73
2023/12/14 03:51:04;;;;;;;;;;;;;;;21.34;28.64;96917.66;4964013;28;1234;-73
2023/12/14 03:53:29;;;;;;;;;;;;;;;21.59;28.12;96919.41;4996295;28;1922;-73
2023/12/14 03:55:55;;;;;;;;;;;;;;;21.96;27.60;96919.41;5011448;28;996;-74
2023/12/14 03:58:21;;;;;;;;;;;;;;;21.82;27.83;96927.28;5015494;28;947;-73
2023/12/14 04:00:46;;;;;;;;;;;;;;;21.72;28.03;96925.72;5015743;28;939;-73
2023/12/14 04:03:12;;;;;;;;;;;;;;;21.71;27.89;96929.00;5015328;28;954;-74
2023/12/14 04:05:38;;;;;;;;;;;;;;;21.55;27.99;96924.44;4999103;28;885;-73
2023/12/14 04:08:04;;;;;;;;;;;;;;;21.55;28.52;96927.25;4999409;28;913;-73
2023/12/14 04:10:30;;;;;;;;;;;;;;;21.98;27.40;96929.00;5015803;28;1119;-73
2023/12/14 04:12:55;;;;;;;;;;;;;;;22.01;27.71;96939.38;5015469;28;1981;-73
2023/12/14 04:15:21;;;;;;;;;;;;;;;22.07;27.55;96948.03;4995673;28;1154;-74
2023/12/14 04:17:46;;;;;;;;;;;;;;;22.02;27.43;96945.81;4995632;28;912;-73
2023/12/14 04:20:12;;;;;;;;;;;;;;;21.76;27.84;96960.31;4995464;28;969;-73
2023/12/14 04:22:38;;;;;;;;;;;;;;;21.48;28.04;96955.88;4995805;28;1265;-73
2023/12/14 04:25:04;;;;;;;;;;;;;;;21.47;28.07;96954.31;4956901;28;1259;-73
2023/12/14 04:27:29;;;;;;;;;;;;;;;21.83;27.82;96945.06;4956697;28;902;-72
2023/12/14 04:29:55;;;;;;;;;;;;;;;21.93;27.89;96943.00;4940694;29;904;-73
2023/12/14 04:32:21;;;;;;;;;;;;;;;21.78;27.92;96937.97;4956586;28;1906;-73
2023/12/14 04:34:47;;;;;;;;;;;;;;;21.87;27.91;96933.59;4959818;28;1256;-73
2023/12/14 04:37:12;;;;;;;;;;;;;;;21.99;27.66;96939.06;4976117;28;802;-73
2023/12/14 04:39:38;;;;;;;;;;;;;;;21.88;27.56;96935.94;4974170;28;2113;-73
2023/12/14 04:42:03;;;;;;;;;;;;;;;21.67;27.71;96934.84;4975208;28;1453;-73
2023/12/14 04:44:29;;;;;;;;;;;;;;;21.82;28.22;96921.63;4976096;28;1182;-73
2023/12/14 04:46:54;;;;;;;;;;;;;;;21.95;27.86;96937.66;4975885;28;1535;-73
2023/12/14 04:49:20;;;;;;;;;;;;;;;22.04;27.85;96926.31;4975849;28;1050;-73
2023/12/14 04:51:45;;;;;;;;;;;;;;;21.97;27.79;96921.00;4975768;28;1911;-73
2023/12/14 04:54:11;;;;;;;;;;;;;;;21.81;28.11;96924.91;4956203;29;1010;-73
2023/12/14 04:56:36;;;;;;;;;;;;;;;21.77;27.83;96925.09;4991173;28;1434;-73
2023/12/14 04:59:02;;;;;;;;;;;;;;;21.65;28.15;96923.19;4998358;28;917;-73
2023/12/14 05:01:27;;;;;;;;;;;;;;;21.73;27.89;96932.16;4998517;28;1152;-73
2023/12/14 05:03:53;;;;;;;;;;;;;;;21.77;28.24;96930.75;5014680;28;915;-73
2023/12/14 05:06:19;;;;;;;;;;;;;;;21.85;27.75;96926.31;4998154;28;1160;-74
2023/12/14 05:08:44;;;;;;;;;;;;;;;21.92;27.99;96916.75;4998362;28;951;-73
2023/12/14 05:11:10;;;;;;;;;;;;;;;21.78;27.80;96921.00;4996849;28;1366;-73
2023/12/14 05:13:35;;;;;;;;;;;;;;;21.91;27.94;96920.03;4998527;28;1969;-73
2023/12/14 05:16:01;;;;;;;;;;;;;;;21.98;27.72;96929.00;4981809;28;1655;-73
2023/12/14 05:18:27;;;;;;;;;;;;;;;22.21;27.43;96919.06;5003210;28;1473;-73
2023/12/14 05:20:52;;;;;;;;;;;;;;;21.56;28.25;96934.53;4998455;28;981;-73
2023/12/14 05:23:18;;;;;;;;;;;;;;;21.55;28.06;96921.59;4998047;28;1484;-73
2023/12/14 05:25:44;;;;;;;;;;;;;;;21.47;28.31;96923.19;4998095;28;1172;-73
2023/12/14 05:28:09;;;;;;;;;;;;;;;21.76;27.99;96909.34;4997792;28;954;-73
2023/12/14 05:30:35;;;;;;;;;;;;;;;21.60;28.20;96920.97;5016295;28;891;-73
2023/12/14 05:33:01;;;;;;;;;;;;;;;21.93;27.77;96915.47;5001466;28;1973;-73
2023/12/14 05:35:27;;;;;;;;;;;;;;;21.80;27.91;96907.13;5036249;28;961;-73
2023/12/14 05:37:52;;;;;;;;;;;;;;;21.48;27.98;96914.22;5018648;28;940;-73
2023/12/14 05:40:18;;;;;;;;;;;;;;;21.58;28.38;96924.28;5018766;28;938;-73
2023/12/14 05:42:43;;;;;;;;;;;;;;;21.79;27.99;96918.94;5018834;28;961;-73
2023/12/14 05:45:09;;;;;;;;;;;;;;;21.81;27.77;96914.38;5035097;28;908;-73
2023/12/14 05:47:34;;;;;;;;;;;;;;;21.68;28.01;96915.81;5018556;28;974;-73
2023/12/14 05:50:00;;;;;;;;;;;;;;;22.03;27.77;96925.53;4997027;28;1508;-73
2023/12/14 05:52:26;;;;;;;;;;;;;;;21.82;27.98;96932.16;4981579;28;1973;-73
2023/12/14 05:54:51;;;;;;;;;;;;;;;21.66;27.85;96919.13;4997616;28;1197;-73
2023/12/14 05:57:17;;;;;;;;;;;;;;;21.70;28.12;96931.03;4997593;28;1000;-73
2023/12/14 05:59:42;;;;;;;;;;;;;;;21.92;27.61;96930.13;4998007;28;1061;-73
2023/12/14 06:02:08;;;;;;;;;;;;;;;22.01;27.76;96932.91;4997558;28;1162;-73
2023/12/14 06:04:33;;;;;;;;;;;;;;;22.04;27.47;96938.44;4980748;28;1430;-73
2023/12/14 06:06:59;;;;;;;;;;;;;;;21.68;28.15;96938.44;4994586;28;980;-73
2023/12/14 06:09:31;;;;;;;;;;;;;;;21.83;27.47;96939.41;4994348;28;911;-73
2023/12/14 06:11:57;;;;;;;;;;;;;;;21.62;27.85;96938.28;4994333;28;1906;-74
2023/12/14 06:14:22;;;;;;;;;;;;;;;21.61;28.32;96933.91;4994182;28;1004;-73
2023/12/14 06:16:48;;;;;;;;;;;;;;;21.95;27.73;96940.47;4994237;28;1006;-73
2023/12/14 06:19:13;;;;;;;;;;;;;;;21.83;27.76;96945.84;4995366;28;1536;-74
2023/12/14 06:21:39;;;;;;;;;;;;;;;21.88;27.84;96949.31;5013002;28;1035;-74
2023/12/14 06:24:05;;;;;;;;;;;;;;;21.99;27.70;96952.44;5018579;28;1263;-73
2023/12/14 06:26:31;;;;;;;;;;;;;;;21.73;27.87;96949.94;5002284;28;948;-73
2023/12/14 06:28:56;;;;;;;;;;;;;;;21.67;27.50;96954.66;5019868;28;944;-73
2023/12/14 06:31:22;;;;;;;;;;;;;;;21.63;27.79;96962.50;5002015;28;1906;-73
2023/12/14 06:33:48;;;;;;;;;;;;;;;21.92;27.60;96953.56;5001878;28;1290;-74
2023/12/14 06:36:16;;;;;;;;;;;;;;;21.65;28.29;96968.47;5018364;28;1594;-73
2023/12/14 06:38:42;;;;;;;;;;;;;;;21.85;27.81;96954.63;5002227;28;960;-73
2023/12/14 06:41:08;;;;;;;;;;;;;;;21.97;27.39;96949.31;5002119;28;1370;-73
2023/12/14 06:43:34;;;;;;;;;;;;;;;21.94;27.66;96968.03;5029940;28;1373;-73
2023/12/14 06:45:59;;;;;;;;;;;;;;;21.76;27.58;96963.16;5021299;28;903;-73
2023/12/14 06:48:25;;;;;;;;;;;;;;;21.61;27.78;96959.38;5021333;28;1001;-74
2023/12/14 06:50:50;;;;;;;;;;;;;;;21.68;27.86;96956.22;5038846;28;868;-73
2023/12/14 06:53:16;;;;;;;;;;;;;;;21.77;27.77;96961.91;5017435;28;2008;-73
2023/12/14 06:55:41;;;;;;;;;;;;;;;21.91;27.78;96962.50;5001911;28;961;-73
2023/12/14 06:58:11;;;;;;;;;;;;;;;21.89;27.55;96962.22;5018223;28;998;-73
2023/12/14 07:00:37;;;;;;;;;;;;;;;22.15;27.29;96966.31;5001726;28;868;-73
2023/12/14 07:03:03;;;;;;;;;;;;;;;21.73;27.85;96958.44;5018851;28;1005;-72
2023/12/14 07:05:28;;;;;;;;;;;;;;;21.71;27.55;96952.47;5000446;28;994;-73
2023/12/14 07:07:54;;;;;;;;;;;;;;;21.13;28.54;96964.56;5009732;28;1332;-73
2023/12/14 07:10:19;;;;;;;;;;;;;;;21.66;28.14;96961.56;5019983;28;1065;-73
2023/12/14 07:12:46;;;;;;;;;;;;;;;21.75;27.97;96972.88;5019940;28;1973;-73
2023/12/14 07:15:12;;;;;;;;;;;;;;;21.85;27.41;96965.97;5036255;28;1137;-73
2023/12/14 07:17:37;;;;;;;;;;;;;;;22.01;27.61;96966.91;5036233;28;966;-73
2023/12/14 07:20:03;;;;;;;;;;;;;;;21.98;27.35;96974.31;5020155;28;1025;-73
2023/12/14 07:22:28;;;;;;;;;;;;;;;21.71;27.72;96986.44;5011437;28;1415;-73
2023/12/14 07:24:54;;;;;;;;;;;;;;;21.39;28.21;96984.16;4984128;28;1061;-73
2023/12/14 07:27:19;;;;;;;;;;;;;;;21.69;27.99;96974.00;5000138;28;1113;-73
2023/12/14 07:29:45;;;;;;;;;;;;;;;21.77;27.98;96981.72;5000088;28;1238;-73
2023/12/14 07:32:10;;;;;;;;;;;;;;;21.87;27.96;96968.34;5015679;28;1960;-74
2023/12/14 07:34:36;;;;;;;;;;;;;;;21.83;27.89;96985.50;4976514;28;1294;-73
2023/12/14 07:37:01;;;;;;;;;;;;;;;22.06;27.49;96991.78;4964502;28;1599;-73
2023/12/14 07:39:27;;;;;;;;;;;;;;;21.28;28.52;96991.00;4960826;28;1125;-74
2023/12/14 07:41:52;;;;;;;;;;;;;;;21.66;28.03;96975.72;4961022;28;1277;-73
2023/12/14 07:44:18;;;;;;;;;;;;;;;21.68;27.79;96984.53;4960724;28;1252;-73
2023/12/14 07:46:43;;;;;;;;;;;;;;;21.78;27.99;96994.59;4960951;28;1274;-73
2023/12/14 07:49:09;;;;;;;;;;;;;;;22.00;27.54;96994.44;4960729;28;1327;-74
2023/12/14 07:51:34;;;;;;;;;;;;;;;21.98;27.44;96996.19;4958213;28;1907;-73
2023/12/14 07:54:00;;;;;;;;;;;;;;;21.68;27.89;97000.72;4918343;29;1395;-73
2023/12/14 07:56:27;;;;;;;;;;;;;;;21.47;27.90;96996.75;4903392;29;1002;-73
2023/12/14 07:58:53;;;;;;;;;;;;;;;21.49;27.87;96946.91;4919285;29;982;-73
2023/12/14 08:01:18;;;;;;;;;;;;;;;21.73;28.04;97015.06;4903501;29;1104;-73
2023/12/14 08:03:44;;;;;;;;;;;;;;;21.88;27.89;97003.13;4902394;29;1536;-73
2023/12/14 08:06:09;;;;;;;;;;;;;;;22.02;27.69;96986.28;4933234;29;1787;-73
2023/12/14 08:08:37;;;;;;;;;;;;;;;21.70;28.09;96976.34;4938029;29;1777;-73
2023/12/14 08:11:03;;;;;;;;;;;;;;;21.62;28.00;96975.09;4922393;29;1172;-73
2023/12/14 08:13:29;;;;;;;;;;;;;;;21.74;28.06;96976.97;4937866;29;1984;-73
2023/12/14 08:15:54;;;;;;;;;;;;;;;21.74;27.98;96988.31;4940679;29;988;-73
2023/12/14 08:18:20;;;;;;;;;;;;;;;21.73;27.99;96986.75;4973098;28;1090;-73
2023/12/14 08:20:45;;;;;;;;;;;;;;;21.80;27.83;96972.25;4957094;29;1186;-73
2023/12/14 08:23:11;;;;;;;;;;;;;;;21.91;27.81;96956.84;4956832;29;1293;-73
2023/12/14 08:25:36;;;;;;;;;;;;;;;21.73;27.65;96961.25;5018602;28;923;-73
2023/12/14 08:28:02;;;;;;;;;;;;;;;21.73;27.59;96972.59;5031898;28;957;-73
2023/12/14 08:30:28;;;;;;;;;;;;;;;21.52;28.47;96965.00;4983957;28;1487;-73
2023/12/14 08:32:53;;;;;;;;;;;;;;;21.90;27.79;96966.59;5035806;28;1898;-73
2023/12/14 08:35:19;;;;;;;;;;;;;;;21.85;27.86;96965.97;5037085;28;1065;-73
2023/12/14 08:37:44;;;;;;;;;;;;;;;21.98;27.65;96968.66;5035884;28;881;-73
2023/12/14 08:40:10;;;;;;;;;;;;;;;21.84;27.82;96964.41;5036101;28;903;-73
2023/12/14 08:42:36;;;;;;;;;;;;;;;21.84;27.84;96972.13;5037142;28;935;-73
2023/12/14 08:45:01;;;;;;;;;;;;;;;22.00;27.72;96977.47;5019703;28;1109;-74
2023/12/14 08:47:27;;;;;;;;;;;;;;;21.81;27.94;96979.53;5019402;28;1095;-73
2023/12/14 08:49:52;;;;;;;;;;;;;;;21.77;27.81;96978.09;5020915;28;1267;-73
2023/12/14 08:52:18;;;;;;;;;;;;;;;21.73;28.00;96968.97;5014617;28;1981;-73
2023/12/14 08:54:44;;;;;;;;;;;;;;;21.96;27.78;96964.72;5014650;28;964;-73
2023/12/14 08:57:10;;;;;;;;;;;;;;;21.93;27.92;96977.00;5014573;28;948;-73
2023/12/14 08:59:35;;;;;;;;;;;;;;;21.90;27.78;96972.28;5014807;28;989;-73
2023/12/14 09:02:01;;;;;;;;;;;;;;;21.55;28.39;96966.88;5014558;28;1044;-73
2023/12/14 09:04:26;;;;;;;;;;;;;;;21.36;28.38;96970.97;5014347;28;1404;-73
2023/12/14 09:06:52;;;;;;;;;;;;;;;21.48;28.43;96970.03;5014651;28;1091;-73
2023/12/14 09:09:18;;;;;;;;;;;;;;;21.62;28.26;96963.78;5013141;28;1516;-72
2023/12/14 09:11:44;;;;;;;;;;;;;;;21.83;28.08;96950.72;4994437;28;1977;-74
2023/12/14 09:14:11;;;;;;;;;;;;;;;21.90;27.99;96955.28;4994703;28;1845;-73
2023/12/14 09:16:37;;;;;;;;;;;;;;;21.79;28.14;96952.91;5010950;28;1003;-73
2023/12/14 09:19:03;;;;;;;;;;;;;;;21.78;27.77;96954.19;4994450;28;932;-73
2023/12/14 09:21:28;;;;;;;;;;;;;;;21.65;28.07;96945.81;5011122;28;1147;-73
2023/12/14 09:23:54;;;;;;;;;;;;;;;21.83;27.88;96950.72;4960230;28;1030;-74
2023/12/14 09:26:19;;;;;;;;;;;;;;;21.77;28.01;96942.06;4974913;28;1521;-73
2023/12/14 09:28:45;;;;;;;;;;;;;;;21.73;27.96;96947.09;4978984;28;1621;-73
2023/12/14 09:31:11;;;;;;;;;;;;;;;21.99;27.68;96929.78;4993869;28;1399;-73
2023/12/14 09:33:36;;;;;;;;;;;;;;;21.88;27.99;96937.97;4994393;28;1979;-73
2023/12/14 09:36:02;;;;;;;;;;;;;;;21.61;28.21;96945.22;4977857;28;971;-73
2023/12/14 09:38:28;;;;;;;;;;;;;;;21.52;28.47;96945.97;4994482;28;1092;-73
2023/12/14 09:40:53;;;;;;;;;;;;;;;21.64;28.21;96949.13;4994513;28;1003;-73
2023/12/14 09:43:20;;;;;;;;;;;;;;;21.80;28.17;96941.13;5009242;28;1570;-73
2023/12/14 09:45:45;;;;;;;;;;;;;;;21.63;28.12;96948.34;4997811;28;1140;-73
2023/12/14 09:48:11;;;;;;;;;;;;;;;21.46;28.52;96938.59;5013869;28;1469;-73
2023/12/14 09:50:38;;;;;;;;;;;;;;;21.35;28.48;96932.56;5014178;28;950;-73
2023/12/14 09:53:03;;;;;;;;;;;;;;;21.43;28.46;96942.34;5013602;28;1914;-73
2023/12/14 09:55:31;;;;;;;;;;;;;;;21.55;28.29;96949.91;5013780;28;975;-73
2023/12/14 09:57:56;;;;;;;;;;;;;;;21.87;27.91;96933.59;5020351;28;1521;-74
2023/12/14 10:00:34;;;;;;;;;;;;;;;21.83;27.78;96940.19;5020182;28;1624;-73
2023/12/14 10:03:27;;;;;;;;;;;;;;;21.56;28.48;96937.34;5021129;28;1001;-73
2023/12/14 10:05:53;;;;;;;;;;;;;;;21.46;28.37;96927.28;5035881;28;1224;-73
2023/12/14 10:08:19;;;;;;;;;;;;;;;21.68;28.29;96922.25;5020940;28;964;-72
2023/12/14 10:10:46;;;;;;;;;;;;;;;21.85;27.98;96914.22;5020943;28;1309;-73
2023/12/14 10:13:12;;;;;;;;;;;;;;;22.00;27.70;96920.03;5020027;28;1958;-73
2023/12/14 10:15:41;;;;;;;;;;;;;;;21.79;28.16;96921.78;5018802;28;1290;-73
2023/12/14 10:18:07;;;;;;;;;;;;;;;21.71;28.17;96906.34;5034745;28;1252;-73
2023/12/14 10:20:32;;;;;;;;;;;;;;;21.67;28.04;96909.34;5033592;28;2021;-75
2023/12/14 10:22:58;;;;;;;;;;;;;;;21.70;28.03;96918.94;5019686;28;864;-73
2023/12/14 10:25:23;;;;;;;;;;;;;;;22.00;28.10;96928.53;5035103;28;874;-73
2023/12/14 10:27:55;;;;;;;;;;;;;;;21.23;28.99;96939.91;5019425;28;963;-73
2023/12/14 10:30:20;;;;;;;;;;;;;;;20.96;29.29;96934.97;5033570;28;1416;-73
2023/12/14 10:32:47;;;;;;;;;;;;;;;21.08;28.85;96932.03;5034867;28;1910;-73
2023/12/14 10:35:13;;;;;;;;;;;;;;;21.95;27.81;96926.31;5037886;28;1156;-73
2023/12/14 10:37:39;;;;;;;;;;;;;;;22.27;27.55;96922.84;5021463;28;903;-73
2023/12/14 10:40:07;;;;;;;;;;;;;;;22.54;27.36;96919.16;4996974;28;958;-73
2023/12/14 10:42:33;;;;;;;;;;;;;;;22.86;26.59;96920.44;4981089;28;1021;-73
2023/12/14 10:44:58;;;;;;;;;;;;;;;22.45;27.10;96921.22;4955885;29;1465;-73
2023/12/14 10:47:24;;;;;;;;;;;;;;;22.04;27.40;96915.00;4942470;29;1104;-74
2023/12/14 10:49:50;;;;;;;;;;;;;;;21.99;27.39;96895.81;4942469;29;1048;-73
2023/12/14 10:52:16;;;;;;;;;;;;;;;22.00;26.95;96908.69;4958563;28;1906;-74
2023/12/14 10:54:42;;;;;;;;;;;;;;;21.92;26.84;96907.47;4974259;28;1030;-73
2023/12/14 10:57:08;;;;;;;;;;;;;;;22.44;26.19;96916.84;4974321;28;1023;-73
2023/12/14 10:59:34;;;;;;;;;;;;;;;22.56;25.85;96927.97;4960376;28;1337;-73
2023/12/14 11:02:00;;;;;;;;;;;;;;;22.51;25.74;96936.31;4955067;29;993;-74
2023/12/14 11:04:28;;;;;;;;;;;;;;;22.70;25.59;96923.66;4941751;29;975;-74
2023/12/14 11:06:54;;;;;;;;;;;;;;;22.58;25.51;96930.31;4938689;29;1189;-73
2023/12/14 11:09:21;;;;;;;;;;;;;;;22.72;25.14;96931.69;4954369;29;1188;-73
2023/12/14 11:11:53;;;;;;;;;;;;;;;22.54;24.98;96919.16;4970465;28;1906;-73
2023/12/14 11:14:18;;;;;;;;;;;;;;;22.16;25.73;96914.03;4971681;28;1443;-73
2023/12/14 11:16:46;;;;;;;;;;;;;;;21.97;25.86;96912.50;4976881;28;1002;-73
2023/12/14 11:19:21;;;;;;;;;;;;;;;21.97;25.50;96910.44;4961165;28;1123;-74
2023/12/14 11:21:46;;;;;;;;;;;;;;;22.30;24.68;96921.91;4977213;28;991;-73
2023/12/14 11:24:12;;;;;;;;;;;;;;;22.65;24.25;96915.81;4996970;28;937;-73
2023/12/14 11:26:38;;;;;;;;;;;;;;;22.54;24.21;96924.84;5009486;28;1397;-73
2023/12/14 11:29:04;;;;;;;;;;;;;;;22.60;24.06;96919.31;4992957;28;1362;-73
2023/12/14 11:31:29;;;;;;;;;;;;;;;22.47;24.40;96924.38;4996109;28;1979;-74
2023/12/14 11:33:56;;;;;;;;;;;;;;;22.17;24.50;96923.34;4957132;29;1047;-73
2023/12/14 11:36:22;;;;;;;;;;;;;;;22.40;24.24;96936.06;4941525;29;997;-73
2023/12/14 11:38:48;;;;;;;;;;;;;;;21.98;24.63;96925.38;4951529;28;1435;-73
2023/12/14 11:41:13;;;;;;;;;;;;;;;21.73;24.82;96930.13;4938873;28;1436;-72
2023/12/14 11:43:42;;;;;;;;;;;;;;;21.48;25.25;96928.38;4938069;29;1014;-72
2023/12/14 11:46:07;;;;;;;;;;;;;;;22.27;24.18;96925.66;4938272;29;999;-72
2023/12/14 11:48:33;;;;;;;;;;;;;;;22.34;24.00;96933.84;4922271;29;1098;-72
2023/12/14 11:51:00;;;;;;;;;;;;;;;22.40;23.64;96928.31;4906385;29;986;-72
2023/12/14 11:53:25;;;;;;;;;;;;;;;22.50;23.50;96923.44;4903345;29;1973;-73
2023/12/14 11:55:52;;;;;;;;;;;;;;;22.52;23.35;96932.22;4918800;29;1366;-72
2023/12/14 11:58:18;;;;;;;;;;;;;;;22.42;23.88;96934.28;4938049;29;978;-72
2023/12/14 12:00:45;;;;;;;;;;;;;;;22.36;23.85;96928.50;4938045;29;1738;-72
2023/12/14 12:03:15;;;;;;;;;;;;;;;22.11;24.05;96914.69;4956090;28;1012;-72
2023/12/14 12:05:42;;;;;;;;;;;;;;;21.90;24.33;96921.28;4976211;28;993;-71
2023/12/14 12:08:08;;;;;;;;;;;;;;;22.00;23.95;96915.16;4976221;28;941;-72
2023/12/14 12:10:33;;;;;;;;;;;;;;;22.42;23.35;96922.19;4975554;28;1435;-73
2023/12/14 12:13:11;;;;;;;;;;;;;;;22.59;23.50;96932.69;4976279;28;1907;-72
2023/12/14 12:15:37;;;;;;;;;;;;;;;22.35;24.10;96929.75;4976164;28;1863;-71
2023/12/14 12:18:05;;;;;;;;;;;;;;;22.58;23.85;96919.75;4976174;28;1063;-72
2023/12/14 12:20:32;;;;;;;;;;;;;;;22.67;23.60;96933.13;5002634;28;1451;-72
2023/12/14 12:22:57;;;;;;;;;;;;;;;22.41;24.14;96926.28;4998498;28;1359;-71
2023/12/14 12:25:23;;;;;;;;;;;;;;;22.04;24.61;96932.00;5035315;28;917;-72
2023/12/14 12:27:48;;;;;;;;;;;;;;;22.03;24.54;96930.41;5015782;28;1305;-72
2023/12/14 12:30:15;;;;;;;;;;;;;;;21.87;25.19;96930.75;5016526;28;1305;-72
2023/12/14 12:32:40;;;;;;;;;;;;;;;22.44;24.23;96931.00;5015804;28;1898;-72
2023/12/14 12:35:06;;;;;;;;;;;;;;;22.59;24.17;96926.25;5030772;28;1428;-72
2023/12/14 12:37:32;;;;;;;;;;;;;;;22.63;24.14;96921.16;5002849;28;1169;-71
2023/12/14 12:39:57;;;;;;;;;;;;;;;22.80;24.08;96925.22;5019090;28;948;-72
2023/12/14 12:42:23;;;;;;;;;;;;;;;22.79;24.07;96923.59;5019355;28;1122;-72
2023/12/14 12:44:48;;;;;;;;;;;;;;;22.46;24.55;96928.47;5003032;28;1017;-71
2023/12/14 12:47:14;;;;;;;;;;;;;;;22.49;24.66;96933.19;5001478;28;1368;-72
2023/12/14 12:49:39;;;;;;;;;;;;;;;21.83;25.54;96933.72;5016748;28;962;-72
2023/12/14 12:52:05;;;;;;;;;;;;;;;22.07;25.21;96937.50;4994685;28;1966;-72
2023/12/14 12:54:31;;;;;;;;;;;;;;;22.40;24.95;96950.22;4988245;28;1414;-72